createdAt,value
2023-03-01T00:00:13.206Z,8.49
2023-03-01T00:01:13.359Z,8.34
2023-03-01T00:02:10.277Z,8.86
2023-03-01T00:03:07.941Z,8.06
2023-03-01T00:04:04.873Z,8.55
2023-03-01T00:05:01.718Z,8.43
2023-03-01T00:05:58.825Z,8.43
2023-03-01T00:06:55.604Z,9.35
2023-03-01T00:07:54.858Z,8.20
2023-03-01T00:08:52.055Z,5.98
2023-03-01T00:09:48.862Z,9.09
2023-03-01T00:10:47.104Z,8.53
2023-03-01T00:11:44.722Z,8.65
2023-03-01T00:12:41.582Z,8.10
2023-03-01T00:13:38.945Z,9.05
2023-03-01T00:14:36.816Z,6.47
2023-03-01T00:15:35.187Z,7.62
2023-03-01T00:16:35.220Z,8.10
2023-03-01T00:17:32.035Z,8.98
2023-03-01T00:18:28.872Z,6.83
2023-03-01T00:19:25.733Z,7.98
2023-03-01T00:20:22.485Z,7.67
2023-03-01T00:21:22.207Z,8.50
2023-03-01T00:22:19.224Z,8.17
2023-03-01T00:23:16.050Z,8.87
2023-03-01T00:24:13.175Z,8.58
2023-03-01T00:25:10.336Z,8.75
2023-03-01T00:26:13.245Z,9.10
2023-03-01T00:27:10.013Z,8.06
2023-03-01T00:28:06.914Z,9.11
2023-03-01T00:29:04.683Z,9.08
2023-03-01T00:30:01.417Z,9.22
2023-03-01T00:31:04.571Z,7.18
2023-03-01T00:32:01.399Z,8.85
2023-03-01T00:32:58.219Z,7.85
2023-03-01T00:34:00.108Z,7.90
2023-03-01T00:34:57.386Z,8.92
2023-03-01T00:35:54.215Z,7.06
2023-03-01T00:36:51.001Z,8.63
2023-03-01T00:37:47.816Z,8.79
2023-03-01T00:38:47.707Z,7.96
2023-03-01T00:39:44.746Z,8.43
2023-03-01T00:40:41.547Z,8.99
2023-03-01T00:41:38.594Z,8.62
2023-03-01T00:42:35.339Z,7.75
2023-03-01T00:43:37.630Z,8.55
2023-03-01T00:44:35.451Z,8.87
2023-03-01T00:45:33.909Z,7.69
2023-03-01T00:46:35.309Z,8.74
2023-03-01T00:47:32.351Z,8.92
2023-03-01T00:48:29.154Z,9.08
2023-03-01T00:49:28.690Z,8.63
2023-03-01T00:50:26.205Z,8.88
2023-03-01T00:51:28.684Z,8.75
2023-03-01T00:52:25.633Z,6.63
2023-03-01T00:53:22.712Z,7.37
2023-03-01T00:54:19.533Z,8.66
2023-03-01T00:55:16.381Z,7.76
2023-03-01T00:56:15.470Z,8.16
2023-03-01T00:57:12.782Z,8.06
2023-03-01T00:58:09.597Z,8.02
2023-03-01T00:59:06.873Z,8.84
2023-03-01T01:00:06.653Z,8.60
2023-03-01T01:01:19.350Z,8.68
2023-03-01T01:02:16.460Z,7.36
2023-03-01T01:03:13.275Z,7.70
2023-03-01T01:04:13.544Z,8.74
2023-03-01T01:05:10.972Z,8.66
2023-03-01T01:06:14.683Z,7.04
2023-03-01T01:07:11.604Z,8.64
2023-03-01T01:08:08.427Z,8.06
2023-03-01T01:09:07.782Z,7.19
2023-03-01T01:10:05.341Z,8.70
2023-03-01T01:11:02.056Z,8.20
2023-03-01T01:11:58.853Z,8.05
2023-03-01T01:12:55.735Z,8.79
2023-03-01T01:13:53.045Z,8.04
2023-03-01T01:14:49.793Z,8.38
2023-03-01T01:15:46.615Z,8.30
2023-03-01T01:16:43.960Z,7.94
2023-03-01T01:17:41.569Z,8.41
2023-03-01T01:18:39.172Z,8.07
2023-03-01T01:19:35.962Z,8.71
2023-03-01T01:20:33.244Z,6.83
2023-03-01T01:21:30.286Z,7.16
2023-03-01T01:22:27.173Z,6.10
2023-03-01T01:23:24.006Z,6.55
2023-03-01T01:24:20.965Z,8.13
2023-03-01T01:25:18.316Z,7.79
2023-03-01T01:26:21.207Z,8.59
2023-03-01T01:27:18.028Z,8.59
2023-03-01T01:28:14.860Z,8.22
2023-03-01T01:29:13.023Z,8.47
2023-03-01T01:30:10.518Z,8.66
2023-03-01T01:31:08.555Z,8.54
2023-03-01T01:32:05.803Z,7.17
2023-03-01T01:33:02.781Z,8.38
2023-03-01T01:34:01.316Z,8.48
2023-03-01T01:34:58.139Z,8.22
2023-03-01T01:35:55.756Z,7.38
2023-03-01T01:36:57.121Z,8.00
2023-03-01T01:37:54.002Z,8.75
2023-03-01T01:38:51.886Z,7.85
2023-03-01T01:39:48.813Z,8.55
2023-03-01T01:40:46.947Z,8.12
2023-03-01T01:41:44.021Z,6.99
2023-03-01T01:42:40.833Z,7.38
2023-03-01T01:43:42.100Z,8.22
2023-03-01T01:44:38.971Z,8.55
2023-03-01T01:45:37.235Z,7.99
2023-03-01T01:46:39.678Z,7.47
2023-03-01T01:47:36.622Z,8.45
2023-03-01T01:48:55.181Z,8.67
2023-03-01T01:49:56.776Z,7.58
2023-03-01T01:51:01.803Z,7.38
2023-03-01T01:52:27.918Z,7.09
2023-03-01T01:53:27.186Z,8.15
2023-03-01T01:54:32.738Z,6.57
2023-03-01T01:55:29.877Z,8.52
2023-03-01T01:56:30.272Z,8.37
2023-03-01T01:57:35.428Z,5.32
2023-03-01T01:58:32.326Z,8.67
2023-03-01T01:59:32.833Z,8.86
2023-03-01T02:00:31.199Z,8.07
2023-03-01T02:01:28.429Z,8.58
2023-03-01T02:02:26.253Z,8.95
2023-03-01T02:03:34.372Z,8.07
2023-03-01T02:04:33.506Z,6.67
2023-03-01T02:05:55.734Z,8.80
2023-03-01T02:07:08.258Z,8.01
2023-03-01T02:08:06.361Z,8.18
2023-03-01T02:09:14.772Z,7.85
2023-03-01T02:10:11.724Z,8.82
2023-03-01T02:11:11.512Z,7.87
2023-03-01T02:12:08.691Z,7.87
2023-03-01T02:13:06.217Z,8.42
2023-03-01T02:14:03.002Z,7.62
2023-03-01T02:14:59.836Z,8.59
2023-03-01T02:15:57.368Z,8.30
2023-03-01T02:16:54.442Z,7.85
2023-03-01T02:17:52.052Z,8.09
2023-03-01T02:18:50.662Z,6.99
2023-03-01T02:19:52.902Z,8.29
2023-03-01T02:21:04.866Z,8.06
2023-03-01T02:22:28.783Z,7.61
2023-03-01T02:23:26.633Z,7.43
2023-03-01T02:24:49.470Z,6.93
2023-03-01T02:26:13.426Z,6.44
2023-03-01T02:27:10.960Z,6.85
2023-03-01T02:28:16.740Z,8.13
2023-03-01T02:29:13.767Z,7.79
2023-03-01T02:30:13.355Z,8.31
2023-03-01T02:31:33.928Z,7.40
2023-03-01T02:32:30.882Z,6.87
2023-03-01T02:33:29.000Z,7.64
2023-03-01T02:34:27.139Z,7.85
2023-03-01T02:35:24.568Z,7.82
2023-03-01T02:36:27.842Z,8.04
2023-03-01T02:37:28.555Z,5.56
2023-03-01T02:38:25.964Z,7.49
2023-03-01T02:39:33.726Z,7.45
2023-03-01T02:40:34.535Z,7.95
2023-03-01T02:41:39.151Z,7.24
2023-03-01T02:42:46.691Z,7.45
2023-03-01T02:43:44.008Z,7.95
2023-03-01T02:44:40.869Z,6.67
2023-03-01T02:45:37.718Z,6.07
2023-03-01T02:46:34.627Z,6.95
2023-03-01T02:47:31.636Z,6.82
2023-03-01T02:48:28.410Z,8.04
2023-03-01T02:49:30.031Z,8.03
2023-03-01T02:50:29.827Z,7.77
2023-03-01T02:52:03.934Z,7.62
2023-03-01T02:53:15.983Z,7.00
2023-03-01T02:54:42.057Z,7.85
2023-03-01T02:55:39.628Z,8.07
2023-03-01T02:56:37.073Z,8.10
2023-03-01T02:57:37.733Z,8.42
2023-03-01T02:58:46.090Z,8.45
2023-03-01T02:59:44.402Z,6.83
2023-03-01T03:00:47.952Z,8.48
2023-03-01T03:01:46.009Z,7.14
2023-03-01T03:02:43.925Z,8.63
2023-03-01T03:03:40.789Z,8.32
2023-03-01T03:04:37.691Z,8.57
2023-03-01T03:05:34.634Z,7.75
2023-03-01T03:06:31.984Z,8.38
2023-03-01T03:07:28.867Z,7.93
2023-03-01T03:08:25.889Z,7.89
2023-03-01T03:09:22.716Z,6.98
2023-03-01T03:10:27.143Z,8.09
2023-03-01T03:11:24.561Z,7.65
2023-03-01T03:12:21.433Z,8.34
2023-03-01T03:13:18.374Z,8.38
2023-03-01T03:14:17.630Z,7.49
2023-03-01T03:15:14.473Z,8.25
2023-03-01T03:16:11.268Z,7.30
2023-03-01T03:17:08.120Z,7.35
2023-03-01T03:18:11.494Z,7.38
2023-03-01T03:19:08.697Z,8.46
2023-03-01T03:20:11.886Z,7.23
2023-03-01T03:21:11.430Z,6.83
2023-03-01T03:22:09.987Z,6.87
2023-03-01T03:23:06.835Z,7.83
2023-03-01T03:24:04.161Z,8.03
2023-03-01T03:25:01.428Z,8.21
2023-03-01T03:25:58.145Z,7.45
2023-03-01T03:26:54.976Z,7.85
2023-03-01T03:27:59.695Z,7.75
2023-03-01T03:28:56.627Z,7.49
2023-03-01T03:29:53.373Z,8.10
2023-03-01T03:30:50.935Z,8.48
2023-03-01T03:31:47.895Z,8.74
2023-03-01T03:32:53.398Z,7.78
2023-03-01T03:33:50.321Z,8.54
2023-03-01T03:34:47.143Z,8.54
2023-03-01T03:35:49.807Z,8.53
2023-03-01T03:36:46.689Z,8.28
2023-03-01T03:38:02.382Z,8.24
2023-03-01T03:38:59.186Z,8.72
2023-03-01T03:39:55.994Z,8.55
2023-03-01T03:41:03.420Z,8.57
2023-03-01T03:42:00.170Z,8.58
2023-03-01T03:42:56.977Z,7.80
2023-03-01T03:43:53.840Z,7.84
2023-03-01T03:44:50.581Z,8.63
2023-03-01T03:45:49.247Z,8.11
2023-03-01T03:46:46.147Z,8.62
2023-03-01T03:47:43.426Z,8.60
2023-03-01T03:48:43.280Z,5.36
2023-03-01T03:49:40.083Z,6.08
2023-03-01T03:50:38.982Z,8.72
2023-03-01T03:51:35.807Z,6.47
2023-03-01T03:52:32.702Z,7.68
2023-03-01T03:53:30.323Z,7.58
2023-03-01T03:54:27.167Z,8.05
2023-03-01T03:55:29.067Z,8.34
2023-03-01T03:56:28.643Z,7.23
2023-03-01T03:57:25.607Z,7.35
2023-03-01T03:58:24.861Z,8.47
2023-03-01T03:59:21.701Z,7.82
2023-03-01T04:00:21.413Z,7.82
2023-03-01T04:01:18.577Z,7.45
2023-03-01T04:02:23.044Z,8.31
2023-03-01T04:03:21.276Z,7.76
2023-03-01T04:04:19.975Z,7.46
2023-03-01T04:05:19.285Z,5.34
2023-03-01T04:06:16.100Z,7.78
2023-03-01T04:07:12.932Z,5.83
2023-03-01T04:08:10.967Z,7.98
2023-03-01T04:09:07.734Z,6.47
2023-03-01T04:10:07.484Z,7.70
2023-03-01T04:11:24.930Z,7.99
2023-03-01T04:12:24.053Z,7.83
2023-03-01T04:13:23.752Z,6.76
2023-03-01T04:14:20.658Z,7.32
2023-03-01T04:15:17.488Z,7.30
2023-03-01T04:16:14.309Z,6.40
2023-03-01T04:17:11.237Z,6.17
2023-03-01T04:18:09.640Z,7.32
2023-03-01T04:19:07.489Z,6.98
2023-03-01T04:20:06.803Z,6.86
2023-03-01T04:21:03.703Z,7.28
2023-03-01T04:22:00.435Z,7.42
2023-03-01T04:23:14.439Z,7.78
2023-03-01T04:24:11.328Z,7.84
2023-03-01T04:25:08.485Z,7.49
2023-03-01T04:26:05.382Z,7.50
2023-03-01T04:27:02.711Z,6.69
2023-03-01T04:27:59.428Z,8.11
2023-03-01T04:28:56.346Z,6.65
2023-03-01T04:29:53.220Z,6.97
2023-03-01T04:30:50.050Z,7.26
2023-03-01T04:31:46.898Z,6.34
2023-03-01T04:32:43.995Z,7.50
2023-03-01T04:33:42.562Z,7.78
2023-03-01T04:34:39.434Z,6.84
2023-03-01T04:35:38.350Z,5.77
2023-03-01T04:36:36.638Z,7.97
2023-03-01T04:37:33.688Z,7.09
2023-03-01T04:38:30.611Z,3.99
2023-03-01T04:39:27.470Z,7.72
2023-03-01T04:40:24.327Z,5.84
2023-03-01T04:41:24.337Z,6.67
2023-03-01T04:42:21.154Z,6.90
2023-03-01T04:43:18.687Z,7.51
2023-03-01T04:44:15.624Z,6.99
2023-03-01T04:45:14.979Z,6.40
2023-03-01T04:46:17.660Z,6.86
2023-03-01T04:47:14.646Z,6.79
2023-03-01T04:48:11.506Z,6.56
2023-03-01T04:49:08.290Z,5.64
2023-03-01T04:50:06.296Z,4.79
2023-03-01T04:51:04.845Z,7.21
2023-03-01T04:52:04.508Z,7.12
2023-03-01T04:53:01.320Z,6.40
2023-03-01T04:54:01.502Z,6.67
2023-03-01T04:54:58.632Z,6.10
2023-03-01T04:55:58.108Z,6.54
2023-03-01T04:56:55.624Z,6.84
2023-03-01T04:57:53.728Z,7.30
2023-03-01T04:58:50.543Z,6.88
2023-03-01T04:59:47.306Z,7.14
2023-03-01T05:00:44.079Z,6.87
2023-03-01T05:01:43.821Z,6.31
2023-03-01T05:02:40.762Z,5.60
2023-03-01T05:03:37.566Z,7.29
2023-03-01T05:04:41.623Z,6.99
2023-03-01T05:05:40.601Z,6.47
2023-03-01T05:06:37.408Z,7.23
2023-03-01T05:07:34.214Z,7.42
2023-03-01T05:08:31.000Z,6.96
2023-03-01T05:09:27.757Z,5.99
2023-03-01T05:10:27.592Z,7.11
2023-03-01T05:11:24.531Z,6.50
2023-03-01T05:12:21.304Z,6.75
2023-03-01T05:13:22.453Z,6.88
2023-03-01T05:14:19.339Z,7.23
2023-03-01T05:15:16.255Z,7.35
2023-03-01T05:16:13.366Z,5.78
2023-03-01T05:17:10.445Z,6.57
2023-03-01T05:18:12.356Z,7.24
2023-03-01T05:19:16.343Z,6.83
2023-03-01T05:20:13.396Z,6.94
2023-03-01T05:21:13.137Z,7.10
2023-03-01T05:22:09.875Z,7.11
2023-03-01T05:23:06.688Z,6.50
2023-03-01T05:24:03.694Z,5.98
2023-03-01T05:25:00.520Z,6.89
2023-03-01T05:26:06.274Z,6.19
2023-03-01T05:27:04.437Z,6.89
2023-03-01T05:28:05.337Z,6.24
2023-03-01T05:29:02.190Z,6.86
2023-03-01T05:29:59.023Z,7.26
2023-03-01T05:30:56.298Z,6.12
2023-03-01T05:32:01.939Z,6.54
2023-03-01T05:32:58.902Z,6.90
2023-03-01T05:33:55.979Z,6.45
2023-03-01T05:34:53.285Z,7.53
2023-03-01T05:35:52.648Z,7.52
2023-03-01T05:36:49.650Z,7.27
2023-03-01T05:37:48.697Z,6.18
2023-03-01T05:38:45.489Z,7.28
2023-03-01T05:39:42.919Z,6.56
2023-03-01T05:40:42.627Z,6.95
2023-03-01T05:41:39.475Z,7.40
2023-03-01T05:42:36.237Z,7.18
2023-03-01T05:43:35.680Z,6.59
2023-03-01T05:44:32.431Z,7.70
2023-03-01T05:45:29.220Z,7.63
2023-03-01T05:46:26.004Z,7.60
2023-03-01T05:47:22.783Z,6.54
2023-03-01T05:48:20.712Z,7.18
2023-03-01T05:49:17.482Z,7.01
2023-03-01T05:50:19.651Z,5.63
2023-03-01T05:51:16.457Z,7.54
2023-03-01T05:52:13.252Z,7.20
2023-03-01T05:53:16.479Z,7.68
2023-03-01T05:54:13.247Z,7.19
2023-03-01T05:55:10.472Z,8.02
2023-03-01T05:56:07.378Z,7.25
2023-03-01T05:57:04.214Z,7.28
2023-03-01T05:58:02.801Z,7.77
2023-03-01T05:58:59.628Z,7.92
2023-03-01T05:59:56.670Z,6.92
2023-03-01T06:00:55.149Z,6.88
2023-03-01T06:01:52.392Z,7.88
2023-03-01T06:02:50.110Z,6.68
2023-03-01T06:03:46.954Z,7.41
2023-03-01T06:04:43.830Z,7.05
2023-03-01T06:05:42.409Z,6.27
2023-03-01T06:06:39.272Z,4.43
2023-03-01T06:07:37.148Z,7.98
2023-03-01T06:08:34.065Z,4.11
2023-03-01T06:09:30.996Z,7.83
2023-03-01T06:10:28.140Z,7.86
2023-03-01T06:11:25.199Z,6.88
2023-03-01T06:12:22.000Z,6.68
2023-03-01T06:13:18.998Z,7.68
2023-03-01T06:14:15.814Z,7.93
2023-03-01T06:15:15.283Z,7.48
2023-03-01T06:16:15.002Z,8.06
2023-03-01T06:17:11.749Z,7.99
2023-03-01T06:18:08.528Z,7.66
2023-03-01T06:19:05.399Z,5.85
2023-03-01T06:20:02.245Z,6.51
2023-03-01T06:20:59.239Z,7.12
2023-03-01T06:21:56.116Z,7.51
2023-03-01T06:22:53.112Z,7.68
2023-03-01T06:23:49.953Z,5.66
2023-03-01T06:24:46.811Z,7.82
2023-03-01T06:25:43.650Z,5.84
2023-03-01T06:26:40.507Z,7.58
2023-03-01T06:27:37.468Z,6.60
2023-03-01T06:28:34.396Z,6.97
2023-03-01T06:29:31.778Z,6.90
2023-03-01T06:30:28.604Z,7.07
2023-03-01T06:31:25.395Z,8.08
2023-03-01T06:32:22.318Z,7.69
2023-03-01T06:33:25.160Z,7.42
2023-03-01T06:34:22.834Z,7.48
2023-03-01T06:35:20.889Z,6.87
2023-03-01T06:36:19.727Z,6.88
2023-03-01T06:37:16.802Z,5.69
2023-03-01T06:38:16.046Z,6.16
2023-03-01T06:39:12.879Z,7.63
2023-03-01T06:40:12.669Z,5.58
2023-03-01T06:41:09.639Z,7.70
2023-03-01T06:42:06.441Z,7.90
2023-03-01T06:43:03.278Z,5.40
2023-03-01T06:44:00.286Z,7.27
2023-03-01T06:44:57.162Z,8.02
2023-03-01T06:45:53.910Z,7.96
2023-03-01T06:46:50.843Z,6.26
2023-03-01T06:47:48.284Z,7.63
2023-03-01T06:48:45.133Z,7.96
2023-03-01T06:49:42.426Z,8.38
2023-03-01T06:50:39.334Z,8.56
2023-03-01T06:51:37.868Z,7.97
2023-03-01T06:52:34.696Z,8.69
2023-03-01T06:53:31.470Z,7.53
2023-03-01T06:54:28.220Z,7.99
2023-03-01T06:55:25.613Z,8.15
2023-03-01T06:56:25.071Z,7.46
2023-03-01T06:57:21.981Z,8.30
2023-03-01T06:58:18.946Z,5.78
2023-03-01T06:59:16.072Z,6.16
2023-03-01T07:00:13.639Z,7.94
2023-03-01T07:01:10.916Z,8.72
2023-03-01T07:02:07.695Z,8.57
2023-03-01T07:03:04.583Z,7.69
2023-03-01T07:04:01.408Z,8.41
2023-03-01T07:04:58.138Z,7.66
2023-03-01T07:05:54.868Z,8.17
2023-03-01T07:06:56.228Z,7.79
2023-03-01T07:07:54.994Z,7.16
2023-03-01T07:08:51.789Z,7.13
2023-03-01T07:09:50.353Z,8.24
2023-03-01T07:10:47.289Z,7.64
2023-03-01T07:11:44.179Z,8.18
2023-03-01T07:12:42.404Z,7.45
2023-03-01T07:13:39.459Z,7.80
2023-03-01T07:14:36.290Z,7.33
2023-03-01T07:15:34.003Z,7.75
2023-03-01T07:16:31.118Z,7.05
2023-03-01T07:17:28.346Z,6.70
2023-03-01T07:18:25.457Z,8.59
2023-03-01T07:19:23.690Z,8.54
2023-03-01T07:20:26.571Z,5.66
2023-03-01T07:21:23.496Z,8.20
2023-03-01T07:22:20.262Z,9.07
2023-03-01T07:23:17.690Z,7.90
2023-03-01T07:24:15.222Z,7.36
2023-03-01T07:25:12.099Z,7.88
2023-03-01T07:26:09.175Z,8.28
2023-03-01T07:27:06.184Z,8.37
2023-03-01T07:28:03.114Z,7.08
2023-03-01T07:29:01.248Z,7.24
2023-03-01T07:29:58.074Z,8.55
2023-03-01T07:30:55.896Z,8.03
2023-03-01T07:31:52.811Z,8.64
2023-03-01T07:32:55.415Z,8.66
2023-03-01T07:33:52.666Z,8.10
2023-03-01T07:35:04.496Z,6.84
2023-03-01T07:36:03.761Z,8.79
2023-03-01T07:37:00.606Z,5.90
2023-03-01T07:37:57.696Z,9.00
2023-03-01T07:38:56.662Z,6.59
2023-03-01T07:39:53.561Z,8.59
2023-03-01T07:40:50.456Z,8.25
2023-03-01T07:41:47.308Z,8.15
2023-03-01T07:42:45.369Z,8.03
2023-03-01T07:43:42.168Z,8.88
2023-03-01T07:44:38.977Z,8.58
2023-03-01T07:45:35.772Z,7.90
2023-03-01T07:46:33.091Z,8.24
2023-03-01T07:47:30.013Z,8.48
2023-03-01T07:48:26.962Z,8.55
2023-03-01T07:49:24.156Z,7.73
2023-03-01T07:50:21.693Z,8.71
2023-03-01T07:51:20.470Z,9.04
2023-03-01T07:52:18.118Z,7.87
2023-03-01T07:53:14.876Z,8.93
2023-03-01T07:54:20.490Z,8.16
2023-03-01T07:55:17.700Z,8.13
2023-03-01T07:56:18.835Z,8.61
2023-03-01T07:57:15.773Z,8.48
2023-03-01T07:58:12.733Z,9.14
2023-03-01T07:59:09.641Z,8.01
2023-03-01T08:00:09.551Z,9.40
2023-03-01T08:01:08.920Z,9.00
2023-03-01T08:02:09.964Z,8.66
2023-03-01T08:03:06.763Z,7.35
2023-03-01T08:04:03.691Z,8.38
2023-03-01T08:05:00.501Z,9.01
2023-03-01T08:05:57.375Z,8.70
2023-03-01T08:06:55.690Z,8.07
2023-03-01T08:07:52.496Z,8.08
2023-03-01T08:08:49.424Z,8.76
2023-03-01T08:09:46.413Z,9.27
2023-03-01T08:10:45.276Z,8.79
2023-03-01T08:11:42.252Z,9.44
2023-03-01T08:12:39.075Z,9.27
2023-03-01T08:13:35.929Z,8.68
2023-03-01T08:14:33.937Z,8.20
2023-03-01T08:15:30.669Z,8.99
2023-03-01T08:16:27.546Z,9.29
2023-03-01T08:17:25.063Z,8.06
2023-03-01T08:18:22.665Z,8.50
2023-03-01T08:19:19.580Z,8.97
2023-03-01T08:20:19.732Z,9.52
2023-03-01T08:21:19.149Z,9.44
2023-03-01T08:22:16.156Z,7.09
2023-03-01T08:23:13.523Z,8.80
2023-03-01T08:24:13.200Z,8.00
2023-03-01T08:25:10.711Z,8.90
2023-03-01T08:26:16.716Z,9.35
2023-03-01T08:27:14.364Z,8.48
2023-03-01T08:28:11.312Z,8.47
2023-03-01T08:29:08.155Z,7.46
2023-03-01T08:30:05.497Z,8.12
2023-03-01T08:31:02.698Z,8.82
2023-03-01T08:31:59.804Z,7.87
2023-03-01T08:32:56.744Z,9.19
2023-03-01T08:33:57.719Z,9.54
2023-03-01T08:34:54.580Z,9.55
2023-03-01T08:35:51.399Z,9.11
2023-03-01T08:36:48.531Z,8.82
2023-03-01T08:37:45.279Z,7.10
2023-03-01T08:38:42.115Z,9.14
2023-03-01T08:39:38.895Z,9.14
2023-03-01T08:40:35.668Z,8.38
2023-03-01T08:41:32.422Z,7.93
2023-03-01T08:42:29.208Z,8.97
2023-03-01T08:43:26.464Z,5.13
2023-03-01T08:44:23.616Z,9.13
2023-03-01T08:45:20.554Z,8.94
2023-03-01T08:46:17.728Z,9.24
2023-03-01T08:47:15.216Z,8.62
2023-03-01T08:48:11.958Z,8.97
2023-03-01T08:49:12.234Z,9.10
2023-03-01T08:50:09.713Z,8.00
2023-03-01T08:51:21.742Z,9.42
2023-03-01T08:52:18.609Z,9.69
2023-03-01T08:53:15.443Z,8.30
2023-03-01T08:54:15.994Z,9.88
2023-03-01T08:55:12.779Z,8.07
2023-03-01T08:56:10.909Z,9.87
2023-03-01T08:57:07.795Z,8.99
2023-03-01T08:58:04.677Z,10.12
2023-03-01T08:59:01.488Z,10.14
2023-03-01T08:59:58.273Z,9.76
2023-03-01T09:00:55.336Z,9.42
2023-03-01T09:01:52.120Z,9.44
2023-03-01T09:02:48.993Z,9.19
2023-03-01T09:03:52.353Z,10.24
2023-03-01T09:04:52.061Z,8.01
2023-03-01T09:05:50.487Z,9.44
2023-03-01T09:06:47.382Z,10.08
2023-03-01T09:07:54.713Z,10.14
2023-03-01T09:08:52.241Z,8.19
2023-03-01T09:09:54.429Z,10.27
2023-03-01T09:10:58.890Z,8.60
2023-03-01T09:11:55.665Z,10.47
2023-03-01T09:12:53.085Z,9.62
2023-03-01T09:13:51.395Z,10.93
2023-03-01T09:14:48.168Z,10.33
2023-03-01T09:15:45.035Z,10.27
2023-03-01T09:16:41.865Z,9.03
2023-03-01T09:17:39.345Z,9.52
2023-03-01T09:18:37.251Z,10.31
2023-03-01T09:19:34.048Z,10.36
2023-03-01T09:20:32.961Z,10.56
2023-03-01T09:21:40.180Z,10.44
2023-03-01T09:22:37.844Z,10.31
2023-03-01T09:23:43.201Z,10.32
2023-03-01T09:24:40.583Z,8.96
2023-03-01T09:25:37.369Z,9.93
2023-03-01T09:26:34.387Z,10.82
2023-03-01T09:27:31.431Z,9.17
2023-03-01T09:28:30.353Z,11.04
2023-03-01T09:29:27.441Z,10.68
2023-03-01T09:30:50.542Z,11.29
2023-03-01T09:31:49.251Z,9.60
2023-03-01T09:32:46.148Z,10.56
2023-03-01T09:33:43.880Z,9.31
2023-03-01T09:34:59.367Z,9.23
2023-03-01T09:36:05.771Z,9.63
2023-03-01T09:37:03.353Z,10.41
2023-03-01T09:38:00.305Z,9.73
2023-03-01T09:38:59.682Z,10.63
2023-03-01T09:39:59.042Z,9.53
2023-03-01T09:40:56.401Z,10.98
2023-03-01T09:42:05.729Z,9.60
2023-03-01T09:43:16.530Z,10.70
2023-03-01T09:44:44.333Z,10.02
2023-03-01T09:45:48.499Z,7.45
2023-03-01T09:46:47.220Z,8.66
2023-03-01T09:47:44.224Z,8.88
2023-03-01T09:48:59.136Z,8.44
2023-03-01T09:49:58.675Z,11.03
2023-03-01T09:50:57.289Z,10.98
2023-03-01T09:52:06.512Z,6.67
2023-03-01T09:53:11.248Z,7.89
2023-03-01T09:54:11.537Z,10.95
2023-03-01T09:55:18.841Z,11.31
2023-03-01T09:57:02.266Z,10.75
2023-03-01T09:58:22.117Z,11.23
2023-03-01T09:59:34.112Z,10.74
2023-03-01T10:00:40.081Z,11.25
2023-03-01T10:01:55.568Z,11.02
2023-03-01T10:03:00.528Z,11.04
2023-03-01T10:04:25.169Z,10.91
2023-03-01T10:05:53.068Z,10.80
2023-03-01T10:07:10.545Z,10.49
2023-03-01T10:08:16.004Z,10.64
2023-03-01T10:09:17.999Z,10.09
2023-03-01T10:10:33.867Z,10.74
2023-03-01T10:11:42.996Z,8.39
2023-03-01T10:12:44.193Z,10.40
2023-03-01T10:14:06.583Z,10.83
2023-03-01T10:15:31.460Z,11.16
2023-03-01T10:16:46.968Z,11.25
2023-03-01T10:17:49.369Z,10.93
2023-03-01T10:18:57.768Z,10.35
2023-03-01T10:19:56.368Z,11.33
2023-03-01T10:21:12.546Z,11.36
2023-03-01T10:22:22.414Z,9.34
2023-03-01T10:23:19.332Z,10.43
2023-03-01T10:24:22.803Z,10.77
2023-03-01T10:25:58.016Z,11.28
2023-03-01T10:27:05.706Z,11.55
2023-03-01T10:28:56.335Z,10.99
2023-03-01T10:30:21.100Z,11.41
2023-03-01T10:31:30.352Z,10.26
2023-03-01T10:32:28.320Z,10.29
2023-03-01T10:33:30.437Z,11.25
2023-03-01T10:34:33.041Z,10.52
2023-03-01T10:35:37.371Z,11.47
2023-03-01T10:36:35.342Z,11.25
2023-03-01T10:37:32.223Z,10.72
2023-03-01T10:38:32.502Z,10.44
2023-03-01T10:39:29.532Z,10.81
2023-03-01T10:40:26.392Z,11.35
2023-03-01T10:41:25.562Z,10.74
2023-03-01T10:42:50.336Z,11.42
2023-03-01T10:43:52.633Z,11.57
2023-03-01T10:44:50.286Z,11.57
2023-03-01T10:45:48.315Z,11.22
2023-03-01T10:46:45.244Z,11.82
2023-03-01T10:47:42.148Z,11.52
2023-03-01T10:48:39.062Z,10.15
2023-03-01T10:49:36.554Z,10.46
2023-03-01T10:50:33.806Z,11.00
2023-03-01T10:51:31.109Z,11.01
2023-03-01T10:52:41.227Z,10.47
2023-03-01T10:53:51.920Z,10.42
2023-03-01T10:54:56.167Z,10.09
2023-03-01T10:56:06.437Z,11.23
2023-03-01T10:57:06.444Z,10.74
2023-03-01T10:58:23.798Z,11.15
2023-03-01T10:59:27.440Z,11.24
2023-03-01T11:00:28.419Z,10.21
2023-03-01T11:01:33.451Z,10.72
2023-03-01T11:02:34.331Z,11.02
2023-03-01T11:03:37.917Z,10.20
2023-03-01T11:04:34.855Z,10.89
2023-03-01T11:05:34.551Z,10.40
2023-03-01T11:06:31.459Z,11.26
2023-03-01T11:07:29.663Z,9.20
2023-03-01T11:11:06.951Z,8.54
2023-03-01T11:12:16.629Z,10.72
2023-03-01T11:13:17.688Z,11.46
2023-03-01T11:14:26.883Z,11.46
2023-03-01T11:15:29.003Z,10.15
2023-03-01T11:16:25.802Z,11.68
2023-03-01T11:17:30.664Z,11.11
2023-03-01T11:18:46.503Z,11.68
2023-03-01T11:20:10.838Z,10.88
2023-03-01T11:21:09.803Z,11.71
2023-03-01T11:22:14.580Z,11.73
2023-03-01T11:23:15.202Z,11.75
2023-03-01T11:24:16.090Z,10.37
2023-03-01T11:25:16.244Z,9.89
2023-03-01T11:26:16.820Z,11.33
2023-03-01T11:27:33.509Z,11.75
2023-03-01T11:28:31.342Z,11.52
2023-03-01T11:29:48.433Z,10.81
2023-03-01T11:31:08.321Z,9.97
2023-03-01T11:32:10.142Z,11.22
2023-03-01T11:33:34.305Z,11.16
2023-03-01T11:34:55.984Z,11.32
2023-03-01T11:36:03.974Z,11.61
2023-03-01T11:37:08.593Z,10.09
2023-03-01T11:38:18.017Z,11.67
2023-03-01T11:39:36.504Z,11.65
2023-03-01T11:40:48.494Z,10.75
2023-03-01T11:41:54.181Z,9.93
2023-03-01T11:43:11.276Z,10.79
2023-03-01T11:44:24.811Z,11.43
2023-03-01T11:45:25.585Z,10.78
2023-03-01T11:46:37.544Z,10.70
2023-03-01T11:48:07.336Z,9.97
2023-03-01T11:49:31.724Z,11.22
2023-03-01T11:50:46.972Z,11.53
2023-03-01T11:51:52.768Z,11.31
2023-03-01T11:53:26.405Z,11.35
2023-03-01T11:54:49.170Z,11.20
2023-03-01T11:56:10.970Z,11.42
2023-03-01T11:57:16.455Z,11.52
2023-03-01T11:59:08.106Z,11.45
2023-03-01T12:00:36.928Z,10.55
2023-03-01T12:01:45.560Z,11.15
2023-03-01T12:03:20.588Z,10.26
2023-03-01T12:04:29.516Z,11.37
2023-03-01T12:05:26.681Z,10.29
2023-03-01T12:06:35.747Z,11.49
2023-03-01T12:07:35.553Z,10.90
2023-03-01T12:09:10.946Z,11.38
2023-03-01T12:10:26.523Z,11.16
2023-03-01T12:11:26.304Z,11.20
2023-03-01T12:12:39.965Z,11.49
2023-03-01T12:14:00.642Z,11.28
2023-03-01T12:15:03.126Z,10.73
2023-03-01T12:16:05.937Z,10.95
2023-03-01T12:17:14.775Z,10.95
2023-03-01T12:18:48.371Z,11.35
2023-03-01T12:20:24.160Z,11.57
2023-03-01T12:21:26.395Z,11.32
2023-03-01T12:22:41.763Z,11.60
2023-03-01T12:23:50.752Z,12.04
2023-03-01T12:25:09.442Z,12.04
2023-03-01T12:26:15.721Z,11.96
2023-03-01T12:27:35.144Z,11.43
2023-03-01T12:28:53.994Z,12.00
2023-03-01T12:30:01.174Z,12.09
2023-03-01T12:31:29.489Z,12.26
2023-03-01T12:32:49.957Z,11.24
2023-03-01T12:34:01.510Z,11.04
2023-03-01T12:35:09.988Z,10.84
2023-03-01T12:36:20.828Z,10.76
2023-03-01T12:37:30.711Z,11.74
2023-03-01T12:39:00.681Z,11.82
2023-03-01T12:40:17.406Z,12.22
2023-03-01T12:41:47.580Z,11.92
2023-03-01T12:43:12.236Z,11.42
2023-03-01T12:46:39.050Z,10.81
2023-03-01T12:47:57.470Z,11.96
2023-03-01T12:49:16.006Z,11.36
2023-03-01T12:50:17.823Z,12.26
2023-03-01T12:51:25.013Z,11.57
2023-03-01T12:52:42.358Z,11.11
2023-03-01T12:53:48.973Z,10.91
2023-03-01T12:54:48.105Z,11.37
2023-03-01T12:55:44.995Z,10.95
2023-03-01T12:56:43.351Z,10.39
2023-03-01T12:57:58.072Z,10.86
2023-03-01T12:59:08.516Z,11.84
2023-03-01T13:00:46.879Z,11.52
2023-03-01T13:02:03.563Z,11.91
2023-03-01T13:03:54.600Z,11.56
2023-03-01T13:05:22.402Z,11.88
2023-03-01T13:06:43.793Z,11.97
2023-03-01T13:07:57.104Z,11.72
2023-03-01T13:09:14.631Z,11.38
2023-03-01T13:10:36.160Z,11.81
2023-03-01T13:11:33.451Z,11.29
2023-03-01T13:12:48.492Z,11.98
2023-03-01T13:13:47.478Z,11.40
2023-03-01T13:14:47.633Z,10.43
2023-03-01T13:15:44.611Z,11.30
2023-03-01T13:16:45.943Z,10.37
2023-03-01T13:17:46.979Z,11.23
2023-03-01T13:18:43.842Z,11.80
2023-03-01T13:19:42.865Z,9.64
2023-03-01T13:20:42.543Z,11.16
2023-03-01T13:21:39.590Z,11.46
2023-03-01T13:22:49.735Z,8.39
2023-03-01T13:23:51.366Z,11.25
2023-03-01T13:24:48.269Z,11.60
2023-03-01T13:26:20.023Z,11.67
2023-03-01T13:27:18.170Z,11.74
2023-03-01T13:28:49.445Z,11.21
2023-03-01T13:29:53.517Z,10.71
2023-03-01T13:30:50.379Z,9.22
2023-03-01T13:31:47.227Z,11.28
2023-03-01T13:32:46.474Z,9.51
2023-03-01T13:33:47.332Z,10.82
2023-03-01T13:34:47.711Z,10.89
2023-03-01T13:35:46.231Z,10.95
2023-03-01T13:36:50.194Z,9.60
2023-03-01T13:37:47.806Z,8.19